Craig Municipal Airport
KCRG : now visible

Airfield :











YOU CAN JOIN US ON...

 
LOGIN :

Register | Disclaimer

   EN    FR    IT 

 









Legend :    VFR   Marginal VFR   IFR   Intensive IFR   Very Intensive IFR
Visi :
Ceiling :
>= 8 km
>= 3000ft
5 to 8 km
1000 to 3000 ft
1500m to 5 km
500 to 1000 ft
800 to 1500m
200 to 500 ft
< 800m
< 200 ft
Symbols :   Thunderstorms  Fog  Heavy snow  Heavy precipitations  Wind > 20 kt






- Airport Elevation : 41 ft


KCRG - Craig Municipal

CURRENT METAR :
  • 081853Z 28010KT 10SM BKN037 BKN080 30/21 A2988 RMK AO2 SLP117 T03000206

EXPIRED METARs :
  • 081753Z 27011G19KT 10SM SCT029 29/21 A2990 RMK AO2 SLP124 T02940206 10294 20200 56016
  • 081733Z 28010G17KT 10SM BKN029 OVC035 29/21 A2991 RMK AO2 T02890206
  • 081721Z 27011G16KT 10SM SCT025 OVC031 28/21 A2992 RMK AO2 T02780206
  • 081653Z 30013G20KT 10SM BKN023 27/21 A2993 RMK AO2 SLP134 T02670206

TAF KCRG
Valid from the 08 at 19:00 until the 09 at 18:00 UTC


081837Z 0819/0918 27012G18KT P6SM VCSH SCT025 BKN035
FM082100 26010KT P6SM VCTS SCT030 BKN040CB
FM090300 24008KT P6SM VCSH SCT025 BKN050
FM090600 23007KT P6SM BKN015 OVC025
FM091500 27013G20KT P6SM BKN030



MET'MAP, your aeronautical weather chart ! - Copyright ORBIFLY December 2007 - Disclaimer

ORBIFLY MET'MAP TEAM :

Programming & Development : Alexandra Zaïnal
Concept & original design : Baudouin d'Aumeries
Assistance for programming : Marc-Olivier Méhu
Technical & hardware support : Manuel Goepfert

Contact : metmap@orbifly.com




SOURCES & CREDITS :

   NOAA       Earth
Advisory